createdAt,value
2018-11-21T00:00:21.890Z,23.07
2018-11-21T00:02:50.947Z,20.40
2018-11-21T00:05:20.292Z,22.60
2018-11-21T00:07:49.793Z,21.30
2018-11-21T00:10:18.854Z,21.03
2018-11-21T00:12:54.331Z,21.90
2018-11-21T00:15:23.648Z,23.03
2018-11-21T00:17:53.428Z,21.70
2018-11-21T00:20:22.278Z,20.20
2018-11-21T00:22:50.932Z,21.77
2018-11-21T00:25:19.679Z,21.03
2018-11-21T00:27:48.179Z,21.67
2018-11-21T00:30:18.462Z,22.53
2018-11-21T00:32:46.971Z,20.97
2018-11-21T00:35:16.178Z,22.60
2018-11-21T00:37:44.437Z,20.93
2018-11-21T00:40:14.323Z,23.40
2018-11-21T00:42:46.748Z,21.13
2018-11-21T00:45:11.680Z,20.60
2018-11-21T00:47:40.429Z,22.03
2018-11-21T00:50:08.937Z,21.80
2018-11-21T00:52:37.591Z,23.33
2018-11-21T00:55:06.845Z,22.87
2018-11-21T00:57:35.345Z,24.67
2018-11-21T01:00:03.976Z,28.37
2018-11-21T01:02:32.476Z,25.50
2018-11-21T01:05:00.947Z,24.40
2018-11-21T01:07:29.551Z,22.83
2018-11-21T01:09:58.028Z,22.87
2018-11-21T01:12:26.592Z,22.70
2018-11-21T01:14:55.071Z,23.07
2018-11-21T01:17:23.576Z,22.90
2018-11-21T01:19:52.048Z,23.03
2018-11-21T01:22:20.516Z,22.53
2018-11-21T01:24:49.393Z,25.00
2018-11-21T01:27:17.863Z,23.67
2018-11-21T01:29:46.371Z,23.53
2018-11-21T01:32:14.873Z,23.70
2018-11-21T01:34:43.389Z,21.77
2018-11-21T01:37:11.861Z,23.43
2018-11-21T01:39:40.656Z,22.97
2018-11-21T01:42:09.045Z,22.53
2018-11-21T01:44:37.566Z,23.10
2018-11-21T01:47:06.187Z,23.57
2018-11-21T01:49:34.663Z,24.90
2018-11-21T01:52:03.168Z,24.37
2018-11-21T01:54:31.639Z,24.03
2018-11-21T01:57:00.156Z,22.40
2018-11-21T01:59:28.633Z,24.37
2018-11-21T02:01:57.158Z,23.67
2018-11-21T02:04:25.624Z,24.50
2018-11-21T02:06:54.134Z,24.50
2018-11-21T02:09:22.605Z,22.43
2018-11-21T02:11:51.112Z,24.37
2018-11-21T02:14:19.676Z,24.77
2018-11-21T02:16:48.201Z,24.50
2018-11-21T02:19:16.684Z,28.93
2018-11-21T02:21:45.152Z,28.00
2018-11-21T02:24:13.661Z,26.87
2018-11-21T02:26:42.127Z,27.27
2018-11-21T02:29:10.631Z,27.10
2018-11-21T02:31:39.092Z,27.03
2018-11-21T02:34:07.598Z,26.10
2018-11-21T02:36:36.054Z,23.27
2018-11-21T02:39:08.106Z,26.87
2018-11-21T02:41:36.995Z,25.40
2018-11-21T02:44:05.861Z,25.77
2018-11-21T02:46:34.581Z,25.10
2018-11-21T02:49:03.417Z,26.30
2018-11-21T02:51:31.879Z,26.23
2018-11-21T02:54:00.352Z,28.13
2018-11-21T02:57:06.330Z,27.43
2018-11-21T02:59:34.790Z,28.80
2018-11-21T03:02:03.294Z,28.80
2018-11-21T03:04:31.775Z,27.87
2018-11-21T03:07:00.267Z,27.90
2018-11-21T03:09:28.734Z,29.77
2018-11-21T03:11:57.252Z,30.70
2018-11-21T03:14:25.722Z,31.47
2018-11-21T03:16:54.221Z,30.03
2018-11-21T03:19:22.715Z,28.83
2018-11-21T03:21:51.213Z,29.73
2018-11-21T03:24:19.677Z,31.27
2018-11-21T03:26:48.188Z,27.83
2018-11-21T03:29:16.655Z,32.73
2018-11-21T03:31:45.156Z,29.63
2018-11-21T03:34:13.624Z,27.10
2018-11-21T03:36:48.170Z,31.50
2018-11-21T03:39:17.326Z,29.00
2018-11-21T03:41:46.468Z,27.13
2018-11-21T03:44:14.956Z,28.30
2018-11-21T03:46:44.459Z,31.57
2018-11-21T03:49:12.922Z,28.73
2018-11-21T03:51:41.680Z,28.23
2018-11-21T03:54:10.421Z,30.00
2018-11-21T03:56:39.565Z,29.43
2018-11-21T03:59:08.691Z,29.90
2018-11-21T04:01:37.448Z,29.63
2018-11-21T04:04:06.777Z,25.53
2018-11-21T04:06:35.238Z,30.13
2018-11-21T04:09:05.073Z,28.93
2018-11-21T04:11:33.539Z,31.57
2018-11-21T04:14:02.069Z,26.97
2018-11-21T04:16:30.528Z,27.37
2018-11-21T04:18:59.014Z,29.30
2018-11-21T04:21:27.590Z,26.57
2018-11-21T04:23:56.100Z,28.33
2018-11-21T04:26:24.600Z,28.57
2018-11-21T04:28:53.104Z,28.33
2018-11-21T04:31:21.560Z,27.20
2018-11-21T04:33:50.039Z,29.43
2018-11-21T04:36:18.534Z,28.43
2018-11-21T04:39:00.679Z,28.20
2018-11-21T04:41:29.164Z,28.20
2018-11-21T04:43:57.631Z,27.93
2018-11-21T04:46:26.146Z,28.27
2018-11-21T04:48:54.607Z,27.53
2018-11-21T04:51:23.074Z,26.90
2018-11-21T04:53:51.572Z,26.23
2018-11-21T04:56:20.035Z,27.40
2018-11-21T04:58:48.542Z,25.90
2018-11-21T05:01:17.041Z,27.80
2018-11-21T05:03:45.534Z,29.23
2018-11-21T05:06:13.996Z,28.27
2018-11-21T05:08:42.493Z,29.10
2018-11-21T05:11:11.205Z,27.00
2018-11-21T05:13:39.717Z,26.20
2018-11-21T05:16:08.205Z,25.47
2018-11-21T05:18:36.709Z,28.50
2018-11-21T05:21:05.287Z,27.90
2018-11-21T05:23:33.882Z,25.63
2018-11-21T05:26:02.343Z,25.20
2018-11-21T05:28:30.836Z,27.50
2018-11-21T05:30:59.301Z,27.93
2018-11-21T05:33:28.079Z,27.60
2018-11-21T05:35:56.538Z,25.90
2018-11-21T05:38:25.059Z,27.90
2018-11-21T05:40:53.517Z,27.23
2018-11-21T05:43:22.022Z,26.83
2018-11-21T05:45:50.480Z,28.97
2018-11-21T05:48:18.986Z,27.80
2018-11-21T05:50:47.454Z,27.13
2018-11-21T05:53:15.956Z,28.77
2018-11-21T05:55:44.417Z,25.60
2018-11-21T05:58:12.922Z,26.77
2018-11-21T06:00:49.135Z,24.97
2018-11-21T06:03:13.692Z,26.40
2018-11-21T06:05:42.155Z,26.40
2018-11-21T06:08:10.684Z,27.20
2018-11-21T06:10:39.150Z,25.60
2018-11-21T06:13:07.686Z,27.23
2018-11-21T06:15:36.150Z,27.07
2018-11-21T06:18:05.003Z,26.43
2018-11-21T06:20:33.500Z,26.80
2018-11-21T06:23:01.966Z,25.73
2018-11-21T06:25:30.662Z,26.37
2018-11-21T06:27:59.138Z,25.67
2018-11-21T06:30:27.642Z,26.80
2018-11-21T06:32:56.116Z,27.33
2018-11-21T06:35:24.759Z,28.10
2018-11-21T06:37:53.229Z,26.37
2018-11-21T06:40:21.721Z,26.20
2018-11-21T06:42:54.315Z,25.93
2018-11-21T06:45:24.162Z,27.10
2018-11-21T06:47:52.630Z,28.43
2018-11-21T06:50:21.330Z,28.43
2018-11-21T06:52:50.078Z,27.50
2018-11-21T06:55:18.589Z,27.13
2018-11-21T06:57:47.095Z,25.97
2018-11-21T07:00:15.606Z,27.43
2018-11-21T07:02:44.105Z,31.57
2018-11-21T07:05:12.751Z,43.10
2018-11-21T07:07:41.211Z,33.10
2018-11-21T07:10:12.149Z,30.77
2018-11-21T07:12:40.671Z,26.80
2018-11-21T07:15:09.488Z,27.10
2018-11-21T07:17:38.308Z,29.10
2018-11-21T07:20:09.017Z,27.87
2018-11-21T07:22:39.811Z,28.47
2018-11-21T07:25:35.148Z,25.17
2018-11-21T07:28:03.675Z,24.90
2018-11-21T07:30:32.161Z,26.67
2018-11-21T07:33:00.625Z,26.30
2018-11-21T07:35:29.126Z,25.27
2018-11-21T07:37:57.600Z,25.77
2018-11-21T07:40:26.113Z,24.93
2018-11-21T07:42:54.583Z,26.13
2018-11-21T07:45:23.755Z,24.60
2018-11-21T07:47:51.572Z,24.07
2018-11-21T07:50:21.227Z,24.23
2018-11-21T07:52:49.713Z,24.77
2018-11-21T07:55:18.328Z,23.80
2018-11-21T07:57:48.756Z,24.93
2018-11-21T08:00:54.147Z,24.33
2018-11-21T08:03:23.667Z,26.63
2018-11-21T08:05:54.845Z,26.77
2018-11-21T08:08:48.351Z,26.30
2018-11-21T08:11:34.526Z,26.07
2018-11-21T08:14:20.640Z,27.00
2018-11-21T08:17:13.990Z,26.77
2018-11-21T08:20:16.898Z,26.67
2018-11-21T08:23:08.136Z,25.33
2018-11-21T08:25:58.515Z,25.93
2018-11-21T08:28:30.911Z,24.70
2018-11-21T08:30:59.412Z,25.77
2018-11-21T08:33:33.852Z,25.33
2018-11-21T08:35:57.125Z,25.47
2018-11-21T08:38:25.594Z,23.60
2018-11-21T08:40:54.220Z,24.87
2018-11-21T08:43:22.702Z,26.07
2018-11-21T08:45:51.273Z,24.47
2018-11-21T08:48:20.565Z,23.37
2018-11-21T08:50:49.069Z,24.33
2018-11-21T08:53:17.576Z,24.00
2018-11-21T08:55:46.051Z,24.27
2018-11-21T08:58:15.000Z,24.30
2018-11-21T09:00:43.521Z,23.73
2018-11-21T09:03:14.254Z,24.97
2018-11-21T09:05:42.786Z,24.60
2018-11-21T09:08:11.291Z,23.70
2018-11-21T09:10:39.755Z,24.03
2018-11-21T09:13:08.272Z,23.30
2018-11-21T09:15:37.137Z,22.60
2018-11-21T09:18:05.894Z,22.50
2018-11-21T09:20:34.388Z,22.53
2018-11-21T09:23:02.913Z,23.50
2018-11-21T09:25:31.982Z,23.53
2018-11-21T09:28:00.538Z,23.77
2018-11-21T09:30:29.013Z,23.20
2018-11-21T09:32:58.163Z,22.63
2018-11-21T09:35:26.679Z,22.77
2018-11-21T09:37:55.811Z,22.87
2018-11-21T09:40:24.644Z,23.27
2018-11-21T09:42:55.441Z,22.97
2018-11-21T09:45:25.206Z,23.13
2018-11-21T09:47:53.687Z,21.63
2018-11-21T09:50:29.432Z,20.63
2018-11-21T09:53:00.282Z,22.43
2018-11-21T09:55:29.164Z,22.03
2018-11-21T09:57:57.893Z,21.13
2018-11-21T10:01:03.424Z,22.63
2018-11-21T10:03:33.354Z,22.53
2018-11-21T10:06:19.823Z,21.70
2018-11-21T10:08:50.216Z,22.20
2018-11-21T10:11:18.960Z,21.57
2018-11-21T10:13:47.516Z,21.37
2018-11-21T10:16:16.503Z,22.40
2018-11-21T10:18:46.966Z,25.50
2018-11-21T10:21:17.198Z,23.40
2018-11-21T10:23:48.133Z,22.23
2018-11-21T10:26:17.709Z,21.73
2018-11-21T10:28:48.010Z,20.73
2018-11-21T10:31:16.832Z,21.30
2018-11-21T10:33:49.161Z,22.27
2018-11-21T10:36:17.958Z,21.03
2018-11-21T10:38:46.420Z,23.50
2018-11-21T10:41:14.922Z,23.17
2018-11-21T10:43:43.378Z,22.57
2018-11-21T10:46:11.884Z,20.53
2018-11-21T10:48:40.369Z,21.27
2018-11-21T10:51:09.876Z,21.13
2018-11-21T10:53:39.280Z,21.47
2018-11-21T10:56:08.806Z,21.13
2018-11-21T10:58:38.206Z,22.37
2018-11-21T11:01:24.317Z,21.77
2018-11-21T11:04:23.900Z,22.23
2018-11-21T11:07:10.147Z,21.03
2018-11-21T11:09:51.769Z,21.27
2018-11-21T11:12:40.521Z,22.23
2018-11-21T11:15:37.497Z,21.40
2018-11-21T11:18:32.337Z,24.97
2018-11-21T11:21:19.078Z,21.27
2018-11-21T11:27:41.731Z,27.07
2018-11-21T11:30:39.229Z,28.67
2018-11-21T11:33:26.374Z,22.90
2018-11-21T11:36:13.312Z,23.40
2018-11-21T11:38:56.395Z,23.00
2018-11-21T11:41:42.621Z,20.40
2018-11-21T11:44:29.958Z,21.43
2018-11-21T11:47:17.829Z,22.10
2018-11-21T11:49:57.730Z,22.30
2018-11-21T11:52:45.320Z,22.30
2018-11-21T11:55:32.503Z,23.63
2018-11-21T11:58:38.100Z,21.50
2018-11-21T12:01:45.059Z,23.20
2018-11-21T12:04:36.448Z,21.80
2018-11-21T12:07:25.439Z,21.07
2018-11-21T12:10:12.591Z,23.37
2018-11-21T12:13:06.939Z,21.80
2018-11-21T12:16:10.818Z,21.67
2018-11-21T12:19:04.348Z,23.37
2018-11-21T12:21:51.759Z,23.37
